Estación de Combarbala

Ultimos registro cada 15 minutos 56
Estación Fecha / Hora Temperatura Humedad Lluvia Velocidad Dirección Radiación Presion
56 Combarbala 09-05-2026 13:45 24,7 10,5 0 1 307 591,9 907,3
55 Combarbala 09-05-2026 13:30 24,7 11,2 0 0,5 289 609,4 907,5
54 Combarbala 09-05-2026 13:15 23,6 11,3 0 0,5 286 625,6 907,6
53 Combarbala 09-05-2026 13:00 24 11,1 0 0,5 247 624,4 907,9
52 Combarbala 09-05-2026 12:45 23,2 11,2 0 0,5 307 619,4 908
51 Combarbala 09-05-2026 12:30 23,3 11,3 0 0,5 310 620,6 908,1
50 Combarbala 09-05-2026 12:15 22 12,4 0 0,5 352 624,4 908,1
49 Combarbala 09-05-2026 12:00 23,4 12,1 0 0,5 302 615,6 908,1
48 Combarbala 09-05-2026 11:45 22 13,5 0 0,5 279 604,4 908,2
47 Combarbala 09-05-2026 11:30 21,6 14 0 0 331 591,9 908,4
46 Combarbala 09-05-2026 11:15 20,5 14,9 0 0,5 13 571,9 908,4
45 Combarbala 09-05-2026 11:00 21,4 15,2 0 0,5 24 554,4 908,2
44 Combarbala 09-05-2026 10:45 21,2 15 0 0 34 531,9 908,4
43 Combarbala 09-05-2026 10:30 20,2 14,4 0 0 46 499,4 908,4
42 Combarbala 09-05-2026 10:15 19,3 14,8 0 0 52 473,1 908,3
41 Combarbala 09-05-2026 10:00 17,9 15,6 0 0 70 435,6 908,5
40 Combarbala 09-05-2026 09:45 17,9 14,5 0 0 72 399,4 908,5
39 Combarbala 09-05-2026 09:30 16,6 15,2 0 0 73 358,1 908,3
38 Combarbala 09-05-2026 09:15 14,8 17,7 0 0 74 318,1 908,2
37 Combarbala 09-05-2026 09:00 13,6 18,6 0 0 74 274,4 908,4
36 Combarbala 09-05-2026 08:45 12,9 19,6 0 0 74 230,6 908,4
35 Combarbala 09-05-2026 08:30 12,7 20,8 0 0 74 188,1 908,3
34 Combarbala 09-05-2026 08:15 12,2 20 0 0 74 144,4 908
33 Combarbala 09-05-2026 08:00 9,6 24,4 0 0 74 94,4 908,1
32 Combarbala 09-05-2026 07:45 7,2 28,4 0 0 74 10,6 907,9
31 Combarbala 09-05-2026 07:30 6,5 29,1 0 0 74 5,6 907,8
30 Combarbala 09-05-2026 07:15 7,2 26,9 0 0 74 0,6 907,8
29 Combarbala 09-05-2026 07:00 7,5 27 0 0 74 0,6 907,5
28 Combarbala 09-05-2026 06:45 8 28,5 0 0 74 0,6 907,4
27 Combarbala 09-05-2026 06:30 8,3 31,3 0 0 74 0,6 907,5
26 Combarbala 09-05-2026 06:15 7,6 32,6 0 0 74 0,6 907,4
25 Combarbala 09-05-2026 06:00 8,1 32,2 0 0 74 0,6 907,2
24 Combarbala 09-05-2026 05:45 8,6 27 0 0 74 0,6 907,3
23 Combarbala 09-05-2026 05:30 8,5 20,2 0 0 74 0,6 907,1
22 Combarbala 09-05-2026 05:15 8,2 20 0 0 74 0,6 906,9
21 Combarbala 09-05-2026 05:00 7,9 24,5 0 0 74 0,6 906,9
20 Combarbala 09-05-2026 04:45 7,9 21,3 0 0 74 0,6 906,8
19 Combarbala 09-05-2026 04:30 8,5 17,8 0 0 74 0,6 906,9
18 Combarbala 09-05-2026 04:15 9,2 16,4 0 0 74 0,6 906,8
17 Combarbala 09-05-2026 04:00 9,2 17,1 0 0 74 0,6 906,9
16 Combarbala 09-05-2026 03:45 8,4 18,9 0 0 74 0,6 906,8
15 Combarbala 09-05-2026 03:30 9 18 0 0 74 0,6 906,9
14 Combarbala 09-05-2026 03:15 8,7 18 0 0 74 0,6 907,1
13 Combarbala 09-05-2026 03:00 9,2 18,2 0 0 74 0,6 907,3
12 Combarbala 09-05-2026 02:45 9 16,5 0 0 74 0,6 907,4
11 Combarbala 09-05-2026 02:30 10,5 15,3 0 0 74 0,6 907,6
10 Combarbala 09-05-2026 02:15 10,3 17,2 0 0 74 0,6 907,8
9 Combarbala 09-05-2026 02:00 10,7 18,2 0 0 74 0,6 908
8 Combarbala 09-05-2026 01:45 9,8 20,3 0 0 74 0,6 908,3
7 Combarbala 09-05-2026 01:30 9,4 23,9 0 0 74 0,6 908,5
6 Combarbala 09-05-2026 01:15 10,4 22,9 0 0 74 0,6 908,5
5 Combarbala 09-05-2026 01:00 10,5 21,5 0 0 74 0,6 908,6
4 Combarbala 09-05-2026 00:45 10,7 21,8 0 0 74 0,6 908,7
3 Combarbala 09-05-2026 00:30 10,4 23,9 0 0 74 0,6 908,7
2 Combarbala 09-05-2026 00:15 10,8 23,8 0 0 74 0,6 908,9
1 Combarbala 09-05-2026 00:00 10,4 25,5 0 0 74 0,6 909,1